Time;durP1;ratioP1;P1;durP2;ratioP2;P2;SDS_P1;SDS_P2;PMS_P1;PMS_P2;Temp;Humidity;BMP_temperature;BMP_pressure;BME280_temperature;BME280_humidity;BME280_pressure;Samples;Min_cycle;Max_cycle;Signal;HPM_P1;HPM_P2
2021/09/13 00:01:18;;;;;;;17.70;9.82;;;;;;;13.10;97.98;95660.81;5067304;28;20041;-76
2021/09/13 00:03:44;;;;;;;21.08;10.85;;;;;;;13.19;96.97;95661.78;5065066;28;20047;-76
2021/09/13 00:06:09;;;;;;;16.15;10.00;;;;;;;13.20;97.53;95667.84;5063854;28;20533;-77
2021/09/13 00:08:35;;;;;;;18.75;9.75;;;;;;;13.09;97.93;95661.91;5067697;28;20075;-76
2021/09/13 00:11:00;;;;;;;14.90;10.05;;;;;;;13.09;98.58;95669.81;5056880;28;20075;-77
2021/09/13 00:13:26;;;;;;;14.63;9.25;;;;;;;13.16;97.17;95667.63;5053150;28;20072;-77
2021/09/13 00:15:52;;;;;;;18.77;10.50;;;;;;;13.30;97.19;95668.53;5060955;28;20335;-76
2021/09/13 00:18:17;;;;;;;17.58;10.18;;;;;;;13.23;97.17;95662.00;5063198;28;20045;-77
2021/09/13 00:20:43;;;;;;;16.27;9.85;;;;;;;13.21;97.47;95670.19;5059922;28;20498;-76
2021/09/13 00:23:08;;;;;;;14.98;10.20;;;;;;;13.26;97.22;95675.44;5064315;28;20052;-76
2021/09/13 00:25:34;;;;;;;18.83;10.30;;;;;;;13.20;97.85;95676.53;5058631;28;20491;-77
2021/09/13 00:28:00;;;;;;;17.10;10.50;;;;;;;13.09;97.76;95664.53;5066202;28;20449;-77
2021/09/13 00:30:25;;;;;;;21.17;10.07;;;;;;;13.25;97.84;95670.44;5054119;28;20391;-77
2021/09/13 00:32:51;;;;;;;14.18;9.13;;;;;;;13.06;97.77;95675.66;5057256;28;20090;-77
2021/09/13 00:35:16;;;;;;;19.25;10.38;;;;;;;12.97;98.88;95676.28;5070162;28;20051;-77
2021/09/13 00:37:42;;;;;;;16.08;10.23;;;;;;;13.11;98.47;95672.97;5072893;28;20052;-76
2021/09/13 00:40:08;;;;;;;18.08;11.07;;;;;;;13.20;97.99;95676.53;5062822;28;20044;-77
2021/09/13 00:42:34;;;;;;;16.73;10.68;;;;;;;13.21;98.47;95680.78;5052007;28;20049;-77
2021/09/13 00:45:01;;;;;;;17.73;10.38;;;;;;;13.19;97.91;95682.91;5053415;28;20538;-76
2021/09/13 00:47:27;;;;;;;16.08;10.23;;;;;;;13.17;98.35;95679.75;5068266;28;20041;-77
2021/09/13 00:49:52;;;;;;;22.55;11.80;;;;;;;13.30;98.36;95679.09;5060915;28;20048;-76
2021/09/13 00:52:18;;;;;;;19.48;12.20;;;;;;;13.21;98.43;95680.78;5070794;28;20036;-76
2021/09/13 00:54:46;;;;;;;19.50;11.57;;;;;;;13.16;99.15;95678.22;5050931;28;20406;-77
2021/09/13 00:57:12;;;;;;;20.13;10.82;;;;;;;13.31;98.35;95680.66;5066095;28;20047;-76
2021/09/13 00:59:38;;;;;;;18.30;11.52;;;;;;;13.27;98.68;95679.63;5069186;28;20113;-77
2021/09/13 01:02:04;;;;;;;16.80;11.48;;;;;;;13.26;98.38;95677.28;5061427;28;20045;-77
2021/09/13 01:04:29;;;;;;;21.63;10.90;;;;;;;13.19;98.92;95672.34;5052572;28;20041;-77
2021/09/13 01:06:56;;;;;;;17.13;10.88;;;;;;;13.17;99.40;95670.00;5070977;28;20487;-78
2021/09/13 01:09:22;;;;;;;20.95;10.43;;;;;;;13.22;98.47;95666.50;5070765;28;20045;-77
2021/09/13 01:11:49;;;;;;;22.52;10.88;;;;;;;13.27;97.97;95674.34;5055196;28;20052;-77
2021/09/13 01:14:16;;;;;;;23.48;11.15;;;;;;;13.26;98.01;95672.81;5066207;28;20502;-76
2021/09/13 01:16:42;;;;;;;15.35;9.73;;;;;;;13.14;98.37;95664.47;5072356;28;20043;-77
2021/09/13 01:19:07;;;;;;;18.17;10.55;;;;;;;13.06;98.84;95662.44;5061463;28;20743;-77
2021/09/13 01:21:37;;;;;;;22.42;10.15;;;;;;;12.95;98.83;95661.78;5056610;28;20511;-77
2021/09/13 01:24:03;;;;;;;16.48;10.50;;;;;;;13.02;98.60;95675.44;5051316;28;20045;-77
2021/09/13 01:26:28;;;;;;;20.23;10.38;;;;;;;13.11;97.99;95665.03;5053088;28;20045;-76
2021/09/13 01:28:54;;;;;;;21.05;10.57;;;;;;;13.05;98.48;95660.88;5066916;28;20393;-76
2021/09/13 01:31:19;;;;;;;17.25;9.75;;;;;;;12.96;98.70;95673.91;5050851;28;20048;-77
2021/09/13 01:33:45;;;;;;;14.85;10.10;;;;;;;12.95;98.86;95667.84;5069057;28;20505;-76
2021/09/13 01:36:11;;;;;;;19.25;9.95;;;;;;;12.88;98.98;95667.38;5064184;28;20045;-76
2021/09/13 01:38:36;;;;;;;21.55;9.93;;;;;;;12.80;99.49;95667.97;5066761;28;20044;-77
2021/09/13 01:41:02;;;;;;;21.27;9.82;;;;;;;12.57;100.00;95666.88;5055565;28;20036;-77
2021/09/13 01:43:27;;;;;;;14.32;9.85;;;;;;;12.63;99.93;95669.19;5067743;28;20632;-77
2021/09/13 01:45:53;;;;;;;22.13;10.32;;;;;;;12.80;98.63;95670.63;5065677;28;20048;-77
2021/09/13 01:48:18;;;;;;;20.35;10.40;;;;;;;12.81;98.06;95672.19;5060885;28;20044;-77
2021/09/13 01:50:44;;;;;;;20.25;10.40;;;;;;;12.68;98.66;95667.59;5069191;28;20507;-76
2021/09/13 01:53:09;;;;;;;23.17;11.32;;;;;;;12.62;98.77;95664.97;5061229;28;20036;-77
2021/09/13 01:55:35;;;;;;;18.40;10.50;;;;;;;12.56;99.14;95665.31;5050700;28;20553;-76
2021/09/13 01:58:00;;;;;;;15.73;10.30;;;;;;;12.53;98.95;95661.38;5050795;28;20052;-77
2021/09/13 02:00:26;;;;;;;19.75;10.35;;;;;;;12.46;98.95;95661.69;5050402;28;20061;-76
2021/09/13 02:02:52;;;;;;;15.25;10.20;;;;;;;12.41;99.13;95653.03;5063979;28;20041;-77
2021/09/13 02:05:17;;;;;;;16.55;10.50;;;;;;;12.26;100.00;95659.22;5057773;28;20075;-77
2021/09/13 02:07:43;;;;;;;20.60;10.80;;;;;;;12.21;100.00;95651.34;5070020;28;20037;-77
2021/09/13 02:10:08;;;;;;;19.35;11.65;;;;;;;12.11;100.00;95660.91;5056746;28;20041;-77
2021/09/13 02:12:34;;;;;;;21.80;12.50;;;;;;;12.11;100.00;95654.84;5051039;28;20080;-78
2021/09/13 02:15:00;;;;;;;23.85;11.50;;;;;;;12.14;100.00;95659.59;5057784;28;20043;-77
2021/09/13 02:17:25;;;;;;;22.63;10.93;;;;;;;12.34;99.64;95652.56;5055689;28;20816;-77
2021/09/13 02:19:51;;;;;;;17.02;11.38;;;;;;;12.29;99.46;95658.66;5050368;28;20052;-76
2021/09/13 02:22:17;;;;;;;21.67;12.15;;;;;;;12.22;99.55;95663.47;5060564;28;20041;-77
2021/09/13 02:24:42;;;;;;;18.65;11.18;;;;;;;12.11;99.97;95660.09;5055982;28;20047;-77
2021/09/13 02:27:08;;;;;;;22.42;11.25;;;;;;;12.12;99.75;95661.69;5070161;28;20058;-77
2021/09/13 02:29:34;;;;;;;18.73;11.50;;;;;;;12.11;100.00;95663.56;5069705;28;20091;-76
2021/09/13 02:32:00;;;;;;;19.02;11.15;;;;;;;12.16;100.00;95662.72;5062224;28;20036;-77
2021/09/13 02:34:26;;;;;;;20.70;10.90;;;;;;;12.04;100.00;95660.44;5069502;28;20109;-77
2021/09/13 02:36:51;;;;;;;22.02;10.80;;;;;;;12.13;99.71;95655.38;5067819;28;20518;-77
2021/09/13 02:39:17;;;;;;;23.85;11.98;;;;;;;12.20;99.06;95661.13;5062732;28;20033;-76
2021/09/13 02:41:42;;;;;;;18.17;10.07;;;;;;;12.24;98.48;95658.69;5050270;28;20071;-77
2021/09/13 02:44:08;;;;;;;15.20;9.98;;;;;;;12.21;97.88;95660.06;5050520;28;20059;-76
2021/09/13 02:46:34;;;;;;;16.58;10.57;;;;;;;12.15;98.33;95666.41;5058887;28;20052;-76
2021/09/13 02:48:59;;;;;;;17.48;10.52;;;;;;;12.14;98.48;95664.88;5061887;28;20041;-77
2021/09/13 02:51:25;;;;;;;18.15;10.75;;;;;;;12.11;98.39;95662.75;5066075;28;20056;-77
2021/09/13 02:53:50;;;;;;;17.42;10.80;;;;;;;12.02;98.74;95661.78;5057930;28;20044;-76
2021/09/13 02:56:16;;;;;;;17.15;10.77;;;;;;;11.99;99.19;95651.78;5068035;28;20808;-76
2021/09/13 02:58:42;;;;;;;18.80;10.20;;;;;;;11.99;99.24;95659.69;5067397;28;20044;-77
2021/09/13 03:01:08;;;;;;;17.33;10.95;;;;;;;11.88;99.21;95656.28;5079150;28;20552;-78
2021/09/13 03:03:33;;;;;;;23.70;11.15;;;;;;;11.79;99.63;95653.44;5075257;28;20041;-77
2021/09/13 03:05:59;;;;;;;19.13;10.52;;;;;;;11.74;99.70;95646.34;5050400;28;20119;-77
2021/09/13 03:08:24;;;;;;;20.13;10.85;;;;;;;11.84;99.48;95649.97;5056157;28;20433;-77
2021/09/13 03:10:50;;;;;;;19.10;11.23;;;;;;;11.76;100.00;95649.50;5054679;28;20037;-77
2021/09/13 03:13:17;;;;;;;18.10;10.25;;;;;;;11.64;100.00;95656.16;5054442;28;20113;-76
2021/09/13 03:15:43;;;;;;;18.33;10.63;;;;;;;11.70;99.22;95650.59;5070202;28;20047;-77
2021/09/13 03:18:08;;;;;;;18.00;10.77;;;;;;;11.66;99.43;95648.78;5068464;28;20147;-77
2021/09/13 03:20:34;;;;;;;16.58;10.15;;;;;;;11.60;99.95;95646.16;5068181;28;20414;-77
2021/09/13 03:22:59;;;;;;;16.60;10.43;;;;;;;11.62;99.33;95653.78;5070211;28;20041;-76
2021/09/13 03:25:26;;;;;;;18.20;10.63;;;;;;;11.55;100.00;95659.38;5054325;28;20599;-77
2021/09/13 03:27:52;;;;;;;16.45;9.90;;;;;;;11.58;99.47;95658.84;5055254;28;20067;-77
2021/09/13 03:30:18;;;;;;;18.63;10.70;;;;;;;11.44;100.00;95657.84;5052360;28;20049;-77
2021/09/13 03:32:43;;;;;;;16.20;10.73;;;;;;;11.51;99.45;95663.63;5062681;28;20040;-76
2021/09/13 03:35:09;;;;;;;16.40;10.50;;;;;;;11.47;99.90;95662.56;5060974;28;20037;-77
2021/09/13 03:37:35;;;;;;;19.25;10.30;;;;;;;11.42;99.44;95654.69;5071659;28;20045;-77
2021/09/13 03:40:01;;;;;;;17.05;10.20;;;;;;;11.39;99.57;95656.03;5065467;28;20036;-77
2021/09/13 03:42:26;;;;;;;19.02;10.70;;;;;;;11.33;100.00;95656.31;5073752;28;20534;-77
2021/09/13 03:44:52;;;;;;;19.73;11.10;;;;;;;11.30;100.00;95656.84;5071488;28;20044;-77
2021/09/13 03:47:17;;;;;;;19.70;11.52;;;;;;;11.27;100.00;95648.41;5072382;28;20047;-77
2021/09/13 03:49:43;;;;;;;21.85;10.45;;;;;;;11.31;99.67;95659.22;5067610;28;20055;-77
2021/09/13 03:52:09;;;;;;;19.88;11.45;;;;;;;11.22;99.62;95647.66;5073048;28;20040;-77
2021/09/13 03:54:35;;;;;;;18.80;9.98;;;;;;;11.14;100.00;95654.28;5063988;28;20123;-76
2021/09/13 03:57:01;;;;;;;21.75;11.02;;;;;;;11.38;98.10;95649.19;5071778;28;20051;-77
2021/09/13 03:59:27;;;;;;;15.95;10.18;;;;;;;11.51;97.79;95658.34;5071879;28;20044;-76
2021/09/13 04:01:52;;;;;;;20.42;11.00;;;;;;;11.38;98.28;95653.66;5066688;28;20048;-77
2021/09/13 04:04:22;;;;;;;18.02;10.30;;;;;;;11.35;98.92;95659.44;5052174;28;20084;-76
2021/09/13 04:06:51;;;;;;;16.73;9.95;;;;;;;11.29;98.89;95650.00;5051900;28;20491;-77
2021/09/13 04:11:59;;;;;;;19.15;10.25;;;;;;;11.19;99.46;95643.72;5057063;28;20045;-76
2021/09/13 04:14:29;;;;;;;15.23;9.45;;;;;;;11.01;99.87;95645.09;5066534;28;20040;-78
2021/09/13 04:16:56;;;;;;;15.75;9.75;;;;;;;11.07;99.25;95643.25;5073511;28;20051;-77
2021/09/13 04:19:22;;;;;;;18.58;10.85;;;;;;;10.98;99.65;95639.59;5067728;28;20509;-77
2021/09/13 04:21:53;;;;;;;18.48;10.52;;;;;;;10.98;99.74;95644.84;5068467;28;20048;-77
2021/09/13 04:24:19;;;;;;;19.17;10.65;;;;;;;11.08;99.52;95640.34;5053479;28;20566;-78
2021/09/13 04:26:45;;;;;;;22.60;10.48;;;;;;;11.19;98.80;95635.81;5051797;28;20045;-76
2021/09/13 04:29:12;;;;;;;16.67;10.63;;;;;;;11.18;98.72;95644.78;5060174;28;20048;-77
2021/09/13 04:31:38;;;;;;;16.92;10.38;;;;;;;11.14;98.88;95642.97;5059062;28;20044;-77
2021/09/13 04:34:04;;;;;;;18.05;10.75;;;;;;;11.09;99.01;95641.09;5070668;28;20040;-76
2021/09/13 04:36:29;;;;;;;20.95;11.18;;;;;;;11.06;98.88;95636.38;5071568;28;20510;-77
2021/09/13 04:38:55;;;;;;;21.10;10.15;;;;;;;11.05;99.09;95640.09;5072593;28;20120;-77
2021/09/13 04:41:21;;;;;;;18.45;10.73;;;;;;;11.06;98.62;95636.38;5065102;28;20294;-78
2021/09/13 04:43:47;;;;;;;26.52;11.73;;;;;;;10.99;99.09;95641.16;5057868;28;20040;-77
2021/09/13 04:46:13;;;;;;;20.85;11.80;;;;;;;11.03;98.91;95642.19;5053222;28;20090;-77
2021/09/13 04:48:38;;;;;;;19.50;11.45;;;;;;;11.01;99.11;95639.06;5053220;28;20410;-78
2021/09/13 04:51:05;;;;;;;21.90;11.90;;;;;;;10.96;99.78;95641.69;5053305;28;20045;-77
2021/09/13 04:53:30;;;;;;;19.45;11.70;;;;;;;10.79;100.00;95632.28;5060628;28;20040;-77
2021/09/13 04:55:56;;;;;;;20.23;12.13;;;;;;;10.72;99.88;95637.81;5072379;28;20410;-77
2021/09/13 04:58:21;;;;;;;21.25;11.57;;;;;;;10.70;100.00;95633.84;5072651;28;20490;-77
2021/09/13 05:00:47;;;;;;;23.42;12.45;;;;;;;10.76;100.00;95627.53;5067098;28;20055;-77
2021/09/13 05:03:12;;;;;;;23.00;12.60;;;;;;;10.85;100.00;95631.19;5064372;28;20044;-77
2021/09/13 05:05:38;;;;;;;21.75;12.52;;;;;;;10.79;100.00;95637.53;5072083;28;20040;-77
2021/09/13 05:08:03;;;;;;;24.45;12.25;;;;;;;10.74;100.00;95638.31;5072456;28;20045;-78
2021/09/13 05:10:29;;;;;;;23.13;12.52;;;;;;;10.81;100.00;95635.41;5068020;28;20087;-78
2021/09/13 05:12:55;;;;;;;22.17;11.73;;;;;;;10.81;100.00;95640.69;5051569;28;20052;-77
2021/09/13 05:15:20;;;;;;;22.77;12.32;;;;;;;10.80;100.00;95638.31;5054952;28;20052;-77
2021/09/13 05:17:46;;;;;;;21.30;12.77;;;;;;;10.78;100.00;95640.44;5052699;28;20049;-78
2021/09/13 05:20:13;;;;;;;23.50;12.98;;;;;;;10.85;100.00;95644.34;5053004;28;20051;-77
2021/09/13 05:22:38;;;;;;;25.75;13.52;;;;;;;10.83;100.00;95638.59;5052952;28;20418;-78
2021/09/13 05:25:04;;;;;;;24.40;13.13;;;;;;;10.80;100.00;95639.09;5056501;28;20047;-78
2021/09/13 05:27:30;;;;;;;23.92;13.68;;;;;;;10.89;100.00;95642.78;5066696;28;20036;-78
2021/09/13 05:29:56;;;;;;;22.42;13.60;;;;;;;10.90;100.00;95641.72;5072406;28;20426;-77
2021/09/13 05:32:21;;;;;;;23.63;13.80;;;;;;;10.96;100.00;95646.97;5063410;28;20067;-78
2021/09/13 05:34:47;;;;;;;26.40;14.90;;;;;;;10.90;100.00;95649.63;5052305;28;20037;-78
2021/09/13 05:37:13;;;;;;;31.45;15.20;;;;;;;11.00;100.00;95653.28;5058256;28;20047;-77
2021/09/13 05:39:38;;;;;;;25.85;14.93;;;;;;;11.10;100.00;95642.69;5071136;28;20045;-77
2021/09/13 05:42:04;;;;;;;25.23;15.00;;;;;;;11.15;100.00;95647.97;5054492;28;20040;-77
2021/09/13 05:44:30;;;;;;;28.55;14.13;;;;;;;11.20;100.00;95642.66;5054211;28;20044;-77
2021/09/13 05:46:56;;;;;;;27.23;14.90;;;;;;;11.21;100.00;95649.50;5060364;28;20045;-78
2021/09/13 05:49:21;;;;;;;25.45;13.82;;;;;;;11.32;100.00;95644.19;5053392;28;20154;-77
2021/09/13 05:51:50;;;;;;;29.75;14.00;;;;;;;11.47;100.00;95652.03;5062182;28;20820;-78
2021/09/13 05:54:21;;;;;;;26.95;15.25;;;;;;;11.63;100.00;95650.09;5051252;28;20041;-78
2021/09/13 05:56:49;;;;;;;25.45;14.18;;;;;;;11.67;100.00;95647.72;5054590;28;20119;-78
2021/09/13 05:59:19;;;;;;;26.40;14.30;;;;;;;11.86;100.00;95648.66;5055452;28;20052;-78
2021/09/13 06:01:45;;;;;;;25.92;14.10;;;;;;;11.92;100.00;95652.84;5078411;28;20044;-77
2021/09/13 06:04:11;;;;;;;26.75;14.02;;;;;;;11.90;100.00;95652.31;5069777;28;20390;-77
2021/09/13 06:06:36;;;;;;;25.92;14.88;;;;;;;11.96;100.00;95659.16;5061740;28;20044;-77
2021/09/13 06:09:02;;;;;;;26.38;14.80;;;;;;;11.96;100.00;95659.16;5064678;28;20040;-77
2021/09/13 06:11:27;;;;;;;31.23;15.32;;;;;;;12.32;100.00;95654.69;5055007;28;20040;-78
2021/09/13 06:13:54;;;;;;;38.13;14.95;;;;;;;12.38;100.00;95651.72;5061039;28;20044;-76
2021/09/13 06:16:20;;;;;;;26.42;14.77;;;;;;;12.53;100.00;95656.09;5064204;28;20053;-77
2021/09/13 06:18:45;;;;;;;25.58;15.27;;;;;;;12.53;100.00;95655.28;5054540;28;20040;-77
2021/09/13 06:21:11;;;;;;;28.70;15.77;;;;;;;12.55;100.00;95658.47;5055067;28;20064;-76
2021/09/13 06:23:36;;;;;;;25.92;15.63;;;;;;;12.66;100.00;95665.22;5060340;28;20071;-78
2021/09/13 06:26:02;;;;;;;34.03;16.98;;;;;;;12.76;100.00;95661.72;5055470;28;20045;-76
2021/09/13 06:28:28;;;;;;;28.35;15.73;;;;;;;12.87;100.00;95660.50;5048643;28;20494;-77
2021/09/13 06:30:54;;;;;;;27.42;16.30;;;;;;;13.27;100.00;95655.84;5049833;28;20033;-77
2021/09/13 06:33:20;;;;;;;26.95;16.02;;;;;;;13.31;100.00;95654.22;5056187;28;20041;-78
2021/09/13 06:35:45;;;;;;;29.35;17.77;;;;;;;13.54;100.00;95661.66;5067050;28;20074;-76
2021/09/13 06:38:11;;;;;;;25.65;15.43;;;;;;;13.79;98.66;95668.47;5066447;28;20052;-75
2021/09/13 06:40:37;;;;;;;26.42;15.18;;;;;;;13.93;98.99;95664.03;5055695;28;20422;-74
2021/09/13 06:43:03;;;;;;;27.33;15.30;;;;;;;14.11;98.42;95664.31;5048003;28;20047;-74
2021/09/13 06:45:28;;;;;;;29.92;15.35;;;;;;;14.22;97.96;95673.66;5047613;28;20037;-77
2021/09/13 06:47:54;;;;;;;23.75;14.82;;;;;;;14.37;96.92;95672.66;5054063;28;20033;-75
2021/09/13 06:50:26;;;;;;;26.48;14.35;;;;;;;14.51;95.55;95667.38;5050465;28;20129;-75
2021/09/13 06:52:53;;;;;;;20.85;13.00;;;;;;;14.65;96.06;95676.22;5052334;28;20497;-74
2021/09/13 06:55:19;;;;;;;23.08;13.93;;;;;;;14.66;95.00;95677.75;5068097;28;20045;-76
2021/09/13 06:57:45;;;;;;;21.58;13.77;;;;;;;14.60;96.30;95676.25;5056360;28;20053;-76
2021/09/13 07:00:15;;;;;;;23.77;13.68;;;;;;;14.78;95.85;95677.28;5061584;28;20068;-75
2021/09/13 07:02:43;;;;;;;21.90;13.23;;;;;;;14.66;97.39;95680.41;5057786;28;20043;-75
2021/09/13 07:05:09;;;;;;;24.02;13.85;;;;;;;14.94;94.24;95685.78;5046587;28;20052;-75
2021/09/13 07:07:36;;;;;;;22.38;13.27;;;;;;;14.83;96.03;95679.84;5054597;28;20048;-75
2021/09/13 07:10:08;;;;;;;23.00;12.35;;;;;;;14.77;97.41;95680.22;5059392;28;20721;-75
2021/09/13 07:12:34;;;;;;;23.30;13.32;;;;;;;14.79;96.93;95683.38;5056905;28;20810;-75
2021/09/13 07:15:01;;;;;;;22.67;13.38;;;;;;;15.03;97.79;95684.00;5057064;28;20554;-75
2021/09/13 07:17:26;;;;;;;29.23;15.25;;;;;;;15.31;92.64;95678.72;5058170;28;20040;-75
2021/09/13 07:19:52;;;;;;;23.77;14.20;;;;;;;15.23;94.24;95682.06;5053476;28;20045;-75
2021/09/13 07:22:19;;;;;;;22.23;14.18;;;;;;;15.12;94.85;95691.28;5061653;28;20072;-76
2021/09/13 07:24:45;;;;;;;22.52;13.70;;;;;;;15.08;95.30;95691.06;5047194;28;20037;-76
2021/09/13 07:27:11;;;;;;;22.27;13.10;;;;;;;15.05;96.60;95687.13;5047455;28;20155;-75
2021/09/13 07:29:38;;;;;;;22.65;13.50;;;;;;;15.05;96.83;95697.72;5045916;28;20037;-75
2021/09/13 07:32:04;;;;;;;23.02;13.25;;;;;;;15.06;97.66;95694.00;5055445;28;20048;-76
2021/09/13 07:34:30;;;;;;;24.38;14.60;;;;;;;15.03;97.92;95699.91;5060988;28;20037;-76
2021/09/13 07:36:56;;;;;;;24.77;13.02;;;;;;;15.09;98.36;95697.94;5060371;28;20048;-76
2021/09/13 07:39:24;;;;;;;22.90;13.30;;;;;;;15.11;98.88;95700.31;5050967;28;20052;-76
2021/09/13 07:41:50;;;;;;;24.92;14.52;;;;;;;15.38;97.08;95700.31;5063138;28;20417;-75
2021/09/13 07:44:15;;;;;;;21.25;12.88;;;;;;;15.45;96.92;95704.44;5052163;28;20049;-75
2021/09/13 07:46:41;;;;;;;25.80;14.98;;;;;;;15.68;94.11;95702.66;5049702;28;20043;-75
2021/09/13 07:49:07;;;;;;;22.33;13.20;;;;;;;15.74;93.31;95702.25;5050539;28;20045;-76
2021/09/13 07:51:33;;;;;;;20.65;13.25;;;;;;;15.88;93.98;95709.44;5053648;28;20927;-75
2021/09/13 07:53:58;;;;;;;19.98;12.57;;;;;;;15.75;95.22;95709.13;5047804;28;20045;-76
2021/09/13 07:56:24;;;;;;;21.38;13.50;;;;;;;15.70;95.90;95711.91;5052287;28;20050;-75
2021/09/13 07:58:49;;;;;;;25.60;14.43;;;;;;;15.98;95.67;95711.88;5049800;28;20045;-76
2021/09/13 08:01:15;;;;;;;21.55;13.02;;;;;;;16.24;94.42;95713.97;5050648;28;20044;-75
2021/09/13 08:03:41;;;;;;;20.27;12.18;;;;;;;16.50;92.59;95705.41;5051229;28;20124;-76
2021/09/13 08:06:07;;;;;;;20.02;12.30;;;;;;;16.42;92.04;95715.69;5054831;28;20040;-75
2021/09/13 08:08:33;;;;;;;24.55;13.85;;;;;;;16.34;92.07;95721.69;5063664;28;20399;-75
2021/09/13 08:10:58;;;;;;;21.55;12.68;;;;;;;16.31;93.60;95717.00;5062257;28;20103;-77
2021/09/13 08:13:24;;;;;;;20.95;13.18;;;;;;;16.58;91.59;95717.97;5068276;28;20044;-76
2021/09/13 08:15:49;;;;;;;19.92;12.27;;;;;;;16.74;90.70;95716.50;5055976;28;20041;-76
2021/09/13 08:18:15;;;;;;;22.25;12.93;;;;;;;16.92;86.56;95713.97;5054317;28;20125;-77
2021/09/13 08:20:41;;;;;;;21.92;12.73;;;;;;;17.01;88.95;95714.81;5057484;28;20033;-76
2021/09/13 08:23:06;;;;;;;22.27;12.68;;;;;;;17.32;87.38;95721.97;5050765;28;20041;-77
2021/09/13 08:25:32;;;;;;;22.35;10.85;;;;;;;17.70;82.08;95718.81;5041132;28;20121;-76
2021/09/13 08:27:57;;;;;;;20.10;11.07;;;;;;;17.95;84.17;95719.22;5051551;28;20520;-75
2021/09/13 08:30:23;;;;;;;16.63;10.65;;;;;;;17.70;84.91;95723.34;5050879;28;20052;-75
2021/09/13 08:32:49;;;;;;;19.73;11.20;;;;;;;17.76;84.88;95717.59;5055264;28;20059;-75
2021/09/13 08:35:14;;;;;;;16.20;10.30;;;;;;;17.95;84.24;95717.31;5050795;28;20041;-74
2021/09/13 08:37:40;;;;;;;17.80;10.55;;;;;;;17.92;84.44;95725.16;5047588;28;20060;-73
2021/09/13 08:40:06;;;;;;;17.23;9.80;;;;;;;17.89;85.00;95725.75;5062178;28;20041;-75
2021/09/13 08:42:44;;;;;;;18.00;10.15;;;;;;;17.94;85.24;95728.28;5048695;28;20061;-76
2021/09/13 08:45:12;;;;;;;13.35;8.57;;;;;;;18.23;82.71;95729.56;5049020;28;20101;-76
2021/09/13 08:47:49;;;;;;;14.88;9.27;;;;;;;18.22;81.69;95728.03;5048353;28;20056;-75
2021/09/13 08:50:25;;;;;;;13.15;8.60;;;;;;;18.08;80.55;95728.94;5048158;28;20165;-75
2021/09/13 08:52:51;;;;;;;14.10;8.70;;;;;;;17.82;82.97;95721.66;5059845;28;20064;-76
2021/09/13 08:55:17;;;;;;;13.77;8.50;;;;;;;17.80;83.83;95731.84;5055158;28;20064;-75
2021/09/13 08:57:42;;;;;;;17.55;9.82;;;;;;;17.78;84.47;95736.66;5058423;28;20489;-77
2021/09/13 09:00:09;;;;;;;19.08;9.07;;;;;;;17.72;84.82;95737.91;5051366;28;20072;-75
2021/09/13 09:02:34;;;;;;;15.38;8.90;;;;;;;17.86;86.79;95737.00;5058295;28;20044;-76
2021/09/13 09:05:02;;;;;;;18.50;9.30;;;;;;;18.01;85.13;95744.59;5062146;28;20659;-76
2021/09/13 09:07:45;;;;;;;17.08;9.48;;;;;;;18.18;82.95;95744.59;5069298;28;20040;-77
2021/09/13 09:10:16;;;;;;;14.73;9.18;;;;;;;18.08;83.81;95744.13;5056973;28;20116;-75
2021/09/13 09:13:03;;;;;;;19.13;9.90;;;;;;;18.50;82.49;95739.13;5062781;28;20041;-75
2021/09/13 09:15:30;;;;;;;15.57;10.05;;;;;;;19.01;78.71;95742.09;5053790;28;20526;-75
2021/09/13 09:17:58;;;;;;;17.25;9.38;;;;;;;18.74;80.34;95741.31;5063151;28;20052;-74
2021/09/13 09:20:24;;;;;;;17.13;10.18;;;;;;;18.61;79.82;95739.59;5058113;28;20045;-75
2021/09/13 09:23:04;;;;;;;16.00;10.18;;;;;;;18.48;79.99;95736.78;5049778;28;20055;-75
2021/09/13 09:25:40;;;;;;;19.77;10.68;;;;;;;18.49;80.50;95742.91;5056902;28;20056;-75
2021/09/13 09:28:11;;;;;;;16.02;9.90;;;;;;;18.37;81.49;95740.84;5049590;28;20669;-74
2021/09/13 09:30:42;;;;;;;15.00;9.63;;;;;;;18.41;81.21;95736.47;5062783;28;20049;-74
2021/09/13 09:33:12;;;;;;;17.05;10.65;;;;;;;18.57;80.18;95739.44;5068307;28;20087;-75
2021/09/13 09:35:45;;;;;;;17.33;10.00;;;;;;;18.63;79.78;95737.41;5059052;28;20044;-74
2021/09/13 09:38:33;;;;;;;20.60;10.05;;;;;;;18.67;80.09;95741.78;5050691;28;20044;-75
2021/09/13 09:41:13;;;;;;;19.58;9.57;;;;;;;18.70;81.27;95737.69;5052866;28;20033;-74
2021/09/13 09:43:56;;;;;;;20.45;9.48;;;;;;;18.74;81.78;95738.63;5057229;28;20037;-75
2021/09/13 09:46:43;;;;;;;20.75;11.00;;;;;;;18.78;78.76;95734.25;5065517;28;20066;-75
2021/09/13 09:49:16;;;;;;;16.27;9.55;;;;;;;19.30;81.68;95727.25;5057245;28;20036;-75
2021/09/13 09:51:50;;;;;;;17.42;9.45;;;;;;;19.48;78.28;95734.06;5055662;28;20040;-75
2021/09/13 09:54:19;;;;;;;17.55;10.75;;;;;;;19.51;75.56;95737.97;5048379;28;20492;-75
2021/09/13 09:57:05;;;;;;;18.95;9.65;;;;;;;19.86;77.45;95733.28;5048537;28;20094;-75
2021/09/13 09:59:33;;;;;;;17.75;10.45;;;;;;;20.02;75.28;95730.03;5058244;28;20078;-74
2021/09/13 10:02:00;;;;;;;20.50;10.73;;;;;;;20.28;73.65;95731.75;5056775;28;20486;-74
2021/09/13 10:04:27;;;;;;;19.38;10.55;;;;;;;20.41;71.51;95722.66;5057578;28;20040;-76
2021/09/13 10:06:56;;;;;;;19.77;12.10;;;;;;;20.31;73.36;95728.41;5063027;28;20078;-75
2021/09/13 10:09:23;;;;;;;17.70;9.88;;;;;;;20.51;73.99;95719.59;5060032;28;20048;-74
2021/09/13 10:11:52;;;;;;;18.85;10.50;;;;;;;20.29;72.92;95718.06;5058231;28;20033;-75
2021/09/13 10:14:21;;;;;;;17.67;10.60;;;;;;;20.73;72.12;95720.38;5048728;28;20037;-75
2021/09/13 10:16:48;;;;;;;16.48;10.52;;;;;;;20.96;70.56;95709.28;5052493;28;20044;-74
2021/09/13 10:19:15;;;;;;;18.38;11.57;;;;;;;21.34;70.45;95710.94;5058258;28;20482;-74
2021/09/13 10:21:41;;;;;;;19.30;10.73;;;;;;;21.87;66.92;95711.81;5057556;28;20087;-74
2021/09/13 10:24:22;;;;;;;16.65;9.70;;;;;;;22.49;64.27;95707.09;5051355;28;20387;-74
2021/09/13 10:26:51;;;;;;;13.95;8.77;;;;;;;23.32;63.00;95706.56;5050247;28;20046;-75
2021/09/13 10:29:25;;;;;;;14.75;9.18;;;;;;;23.97;62.31;95708.06;5053908;28;20069;-73
2021/09/13 10:31:51;;;;;;;;;;;;;;;24.56;58.58;95706.19;5061286;28;20120;-74
2021/09/13 10:34:16;;;;;;;14.23;8.73;;;;;;;24.96;57.17;95696.19;5060784;28;20007;-75
2021/09/13 10:37:15;;;;;;;14.77;8.27;;;;;;;23.85;58.26;95700.09;5067125;28;20049;-76
2021/09/13 10:40:13;;;;;;;20.98;9.70;;;;;;;24.11;58.42;95696.09;5049947;28;20052;-78
2021/09/13 10:42:44;;;;;;;19.17;9.07;;;;;;;23.11;60.17;95689.94;5049018;28;20064;-76
2021/09/13 10:45:35;;;;;;;18.13;9.43;;;;;;;23.42;58.39;95693.72;5048016;28;20053;-75
2021/09/13 10:48:19;;;;;;;12.13;8.52;;;;;;;24.48;59.28;95693.75;5046722;28;20048;-75
2021/09/13 10:50:48;;;;;;;15.98;10.68;;;;;;;23.76;58.66;95691.44;5057566;28;20060;-76
2021/09/13 10:53:17;;;;;;;13.85;8.48;;;;;;;25.00;57.44;95688.94;5061410;28;20422;-75
2021/09/13 10:55:51;;;;;;;14.13;9.32;;;;;;;24.99;55.69;95689.31;5061024;28;20064;-74
2021/09/13 10:58:34;;;;;;;12.50;9.13;;;;;;;25.05;54.51;95683.25;5060789;28;20045;-76
2021/09/13 11:01:03;;;;;;;13.98;9.23;;;;;;;24.51;55.76;95681.47;5055749;28;20053;-76
2021/09/13 11:03:36;;;;;;;13.02;9.05;;;;;;;23.58;58.87;95681.09;5053519;28;20098;-77
2021/09/13 11:06:26;;;;;;;11.00;7.40;;;;;;;23.99;58.62;95675.47;5061563;28;20093;-76
2021/09/13 11:08:58;;;;;;;13.32;7.25;;;;;;;24.16;59.96;95676.97;5047869;28;20777;-76
2021/09/13 11:11:26;;;;;;;15.60;7.97;;;;;;;23.88;59.00;95677.94;5066507;28;20092;-76
2021/09/13 11:14:11;;;;;;;11.93;8.20;;;;;;;24.65;57.76;95676.44;5048178;28;20094;-76
2021/09/13 11:16:46;;;;;;;10.55;8.30;;;;;;;23.93;59.67;95669.59;5048502;28;20080;-76
2021/09/13 11:19:14;;;;;;;13.75;7.88;;;;;;;24.46;60.26;95676.41;5048333;28;20037;-76
2021/09/13 11:21:48;;;;;;;12.88;8.43;;;;;;;24.10;58.63;95673.00;5048270;28;20041;-76